Time;durP1;ratioP1;P1;durP2;ratioP2;P2;SDS_P1;SDS_P2;PMS_P1;PMS_P2;Temp;Humidity;BMP_temperature;BMP_pressure;BME280_temperature;BME280_humidity;BME280_pressure;Samples;Min_cycle;Max_cycle;Signal;HPM_P1;HPM_P2
2022/12/18 00:01:33;;;;;;;62.63;18.63;;;;;;;;;;5054404;28;20053;-76
2022/12/18 00:04:01;;;;;;;56.47;19.17;;;;;;;;;;5073272;28;20457;-75
2022/12/18 00:06:28;;;;;;;68.50;20.73;;;;;;;;;;5072022;28;20045;-75
2022/12/18 00:08:56;;;;;;;59.95;19.90;;;;;;;;;;5072104;28;20515;-76
2022/12/18 00:11:24;;;;;;;73.72;20.77;;;;;;;;;;5070325;28;20044;-76
2022/12/18 00:13:50;;;;;;;58.33;20.23;;;;;;;;;;5068613;28;20241;-75
2022/12/18 00:16:22;;;;;;;63.25;19.73;;;;;;;;;;5070504;28;20049;-77
2022/12/18 00:18:49;;;;;;;57.70;18.65;;;;;;;;;;5071674;28;20105;-76
2022/12/18 00:21:16;;;;;;;69.20;21.23;;;;;;;;;;5071282;28;20616;-76
2022/12/18 00:23:43;;;;;;;65.65;20.08;;;;;;;;;;5070045;28;20052;-76
2022/12/18 00:26:20;;;;;;;71.13;21.27;;;;;;;;;;5069944;28;20052;-76
2022/12/18 00:28:47;;;;;;;63.13;19.77;;;;;;;;;;5053214;28;20057;-76
2022/12/18 00:31:15;;;;;;;67.47;20.92;;;;;;;;;;5071517;28;20151;-76
2022/12/18 00:33:41;;;;;;;55.25;19.60;;;;;;;;;;5070048;28;20393;-75
2022/12/18 00:36:15;;;;;;;64.80;20.02;;;;;;;;;;5070809;28;20053;-76
2022/12/18 00:38:42;;;;;;;;;;;;;;;;;;5071869;28;20135;-76
2022/12/18 00:41:10;;;;;;;60.65;19.85;;;;;;;;;;5069632;28;19955;-75
2022/12/18 00:43:37;;;;;;;58.30;19.85;;;;;;;;;;5069961;28;20055;-76
2022/12/18 00:46:07;;;;;;;56.25;20.83;;;;;;;;;;5069912;28;20126;-77
2022/12/18 00:48:34;;;;;;;64.03;20.85;;;;;;;;;;5071039;28;20102;-77
2022/12/18 00:51:01;;;;;;;59.70;19.83;;;;;;;;;;5052386;28;20045;-76
2022/12/18 00:53:27;;;;;;;57.13;19.48;;;;;;;;;;5051137;28;20048;-76
2022/12/18 00:55:54;;;;;;;59.00;19.35;;;;;;;;;;5069538;28;20056;-77
2022/12/18 00:58:20;;;;;;;68.53;20.55;;;;;;;;;;5071093;28;20059;-77
2022/12/18 01:00:46;;;;;;;58.35;18.98;;;;;;;;;;5069409;28;20489;-77
2022/12/18 01:03:13;;;;;;;71.15;20.42;;;;;;;;;;5069819;28;20416;-77
2022/12/18 01:05:41;;;;;;;57.15;18.33;;;;;;;;;;5070327;28;20503;-77
2022/12/18 01:08:07;;;;;;;55.65;18.67;;;;;;;;;;5070997;28;20087;-76
2022/12/18 01:10:34;;;;;;;57.85;19.08;;;;;;;;;;5069477;28;20044;-77
2022/12/18 01:13:00;;;;;;;53.85;18.40;;;;;;;;;;5069753;28;20048;-77
2022/12/18 01:15:26;;;;;;;61.53;19.27;;;;;;;;;;5077898;28;20412;-77
2022/12/18 01:17:53;;;;;;;56.70;18.63;;;;;;;;;;5090647;28;20052;-76
2022/12/18 01:20:20;;;;;;;53.83;18.60;;;;;;;;;;5089568;28;20054;-76
2022/12/18 01:22:46;;;;;;;55.20;17.70;;;;;;;;;;5088842;28;20409;-76
2022/12/18 01:25:13;;;;;;;51.00;18.25;;;;;;;;;;5089580;28;20084;-77
2022/12/18 01:27:39;;;;;;;54.47;18.30;;;;;;;;;;5088208;28;20048;-76
2022/12/18 01:30:06;;;;;;;45.80;17.10;;;;;;;;;;5088808;28;20374;-76
2022/12/18 01:32:32;;;;;;;55.97;18.42;;;;;;;;;;5089465;28;20048;-76
2022/12/18 01:34:59;;;;;;;51.80;17.20;;;;;;;;;;5090218;28;20058;-77
2022/12/18 01:37:25;;;;;;;55.72;17.17;;;;;;;;;;5090565;28;20048;-76
2022/12/18 01:39:54;;;;;;;46.78;16.83;;;;;;;;;;5090419;28;20048;-76
2022/12/18 01:42:21;;;;;;;50.22;16.88;;;;;;;;;;5089430;28;20467;-74
2022/12/18 01:45:01;;;;;;;53.58;16.25;;;;;;;;;;5071667;28;20063;-75
2022/12/18 01:47:27;;;;;;;48.95;15.93;;;;;;;;;;5090955;28;20048;-76
2022/12/18 01:49:55;;;;;;;50.97;16.10;;;;;;;;;;5090447;28;20132;-76
2022/12/18 01:52:21;;;;;;;48.47;17.63;;;;;;;;;;5090073;28;20459;-76
2022/12/18 01:54:49;;;;;;;62.60;18.23;;;;;;;;;;5071885;28;20064;-76
2022/12/18 01:57:16;;;;;;;48.42;17.10;;;;;;;;;;5088284;28;20055;-77
2022/12/18 01:59:45;;;;;;;55.75;16.52;;;;;;;;;;5089736;28;20058;-77
2022/12/18 02:02:11;;;;;;;48.10;15.98;;;;;;;;;;5089812;28;20059;-77
2022/12/18 02:04:41;;;;;;;49.08;16.38;;;;;;;;;;5088242;28;20054;-76
2022/12/18 02:07:23;;;;;;;39.92;14.30;;;;;;;;;;5081300;28;20048;-76
2022/12/18 02:09:59;;;;;;;38.33;12.80;;;;;;;;;;5068742;28;20041;-76
2022/12/18 02:12:49;;;;;;;40.60;13.98;;;;;;;;;;5068071;28;20041;-77
2022/12/18 02:15:18;;;;;;;42.75;14.40;;;;;;;;;;5055026;28;20056;-76
2022/12/18 02:17:56;;;;;;;40.85;14.20;;;;;;;;;;5070209;28;20444;-77
2022/12/18 02:20:27;;;;;;;43.25;13.95;;;;;;;;;;5069273;28;20048;-76
2022/12/18 02:22:57;;;;;;;47.75;15.43;;;;;;;;;;5069020;28;20369;-75
2022/12/18 02:25:42;;;;;;;43.83;14.85;;;;;;;;;;5068972;28;20509;-78
2022/12/18 02:28:11;;;;;;;32.47;11.82;;;;;;;;;;5071308;28;20052;-77
2022/12/18 02:30:39;;;;;;;34.33;12.85;;;;;;;;;;5069094;28;20227;-76
2022/12/18 02:33:08;;;;;;;30.30;11.80;;;;;;;;;;5069222;28;20044;-76
2022/12/18 02:35:35;;;;;;;39.78;12.77;;;;;;;;;;5068571;28;20506;-74
2022/12/18 02:38:03;;;;;;;37.65;12.90;;;;;;;;;;5069379;28;20045;-77
2022/12/18 02:40:30;;;;;;;33.80;12.55;;;;;;;;;;5067961;28;20432;-76
2022/12/18 02:43:02;;;;;;;39.90;14.07;;;;;;;;;;5069163;28;20048;-77
2022/12/18 02:45:28;;;;;;;41.20;13.18;;;;;;;;;;5068409;28;20420;-76
2022/12/18 02:47:55;;;;;;;35.22;12.68;;;;;;;;;;5069945;28;20412;-75
2022/12/18 02:50:36;;;;;;;40.58;13.13;;;;;;;;;;5069153;28;20059;-74
2022/12/18 02:53:02;;;;;;;36.67;12.43;;;;;;;;;;5050000;28;20282;-77
2022/12/18 02:55:47;;;;;;;37.50;11.80;;;;;;;;;;5068900;28;20371;-76
2022/12/18 02:58:29;;;;;;;36.53;12.35;;;;;;;;;;5069921;28;20476;-76
2022/12/18 03:01:01;;;;;;;35.90;12.27;;;;;;;;;;5068906;28;20052;-76
2022/12/18 03:03:29;;;;;;;34.42;11.93;;;;;;;;;;5049762;28;20122;-76
2022/12/18 03:06:22;;;;;;;40.88;13.18;;;;;;;;;;5068934;28;20044;-76
2022/12/18 03:08:50;;;;;;;36.03;12.32;;;;;;;;;;5065315;28;20513;-76
2022/12/18 03:12:22;;;;;;;30.60;12.15;;;;;;;;;;5050792;28;20049;-75
2022/12/18 03:14:03;;;;;;;29.60;11.13;;;;;;;;;;5068135;28;20052;-77
2022/12/18 03:16:30;;;;;;;38.90;12.45;;;;;;;;;;5072292;28;20048;-77
2022/12/18 03:19:08;;;;;;;35.10;11.75;;;;;;;;;;5076913;28;20052;-75
2022/12/18 03:21:40;;;;;;;29.80;11.25;;;;;;;;;;5094248;28;20575;-77
2022/12/18 03:24:07;;;;;;;35.47;11.85;;;;;;;;;;5093289;28;20052;-76
2022/12/18 03:26:36;;;;;;;36.40;12.52;;;;;;;;;;5093102;28;20055;-76
2022/12/18 03:29:06;;;;;;;35.80;11.32;;;;;;;;;;5095058;28;20101;-76
2022/12/18 03:31:37;;;;;;;36.42;12.07;;;;;;;;;;5099793;28;20048;-76
2022/12/18 03:34:13;;;;;;;29.70;11.40;;;;;;;;;;5093861;28;20040;-76
2022/12/18 03:36:39;;;;;;;33.15;12.07;;;;;;;;;;5092233;28;20122;-76
2022/12/18 03:39:06;;;;;;;32.60;11.93;;;;;;;;;;5093491;28;20043;-75
2022/12/18 03:42:05;;;;;;;35.75;12.57;;;;;;;;;;5092746;28;20055;-76
2022/12/18 03:44:34;;;;;;;31.63;11.13;;;;;;;;;;5049823;28;20048;-76
2022/12/18 03:47:00;;;;;;;39.65;12.38;;;;;;;;;;5055684;28;20044;-76
2022/12/18 03:49:27;;;;;;;35.17;11.63;;;;;;;;;;5054002;28;20048;-75
2022/12/18 03:51:59;;;;;;;30.10;12.38;;;;;;;;;;5070872;28;20052;-78
2022/12/18 03:54:26;;;;;;;36.70;11.73;;;;;;;;;;5053333;28;20048;-77
2022/12/18 03:56:56;;;;;;;34.88;10.77;;;;;;;;;;5070888;28;20076;-76
2022/12/18 03:59:23;;;;;;;36.33;11.02;;;;;;;;;;5071227;28;20048;-76
2022/12/18 04:01:52;;;;;;;36.95;11.60;;;;;;;;;;5070208;28;20052;-76
2022/12/18 04:04:19;;;;;;;29.80;10.20;;;;;;;;;;5070975;28;20057;-76
2022/12/18 04:06:46;;;;;;;30.65;10.73;;;;;;;;;;5070547;28;20350;-76
2022/12/18 04:09:13;;;;;;;31.40;11.00;;;;;;;;;;5058521;28;20488;-77
2022/12/18 04:11:40;;;;;;;31.63;10.95;;;;;;;;;;5066480;28;20048;-74
2022/12/18 04:14:07;;;;;;;35.80;11.48;;;;;;;;;;5070310;28;20059;-76
2022/12/18 04:16:37;;;;;;;34.85;11.05;;;;;;;;;;5086543;28;20543;-76
2022/12/18 04:19:03;;;;;;;34.30;11.05;;;;;;;;;;5091940;28;20055;-76
2022/12/18 04:21:30;;;;;;;26.17;9.60;;;;;;;;;;5072912;28;20052;-76
2022/12/18 04:23:56;;;;;;;25.88;9.65;;;;;;;;;;5090280;28;20048;-76
2022/12/18 04:26:23;;;;;;;27.50;9.98;;;;;;;;;;5089265;28;20052;-76
2022/12/18 04:28:49;;;;;;;26.88;9.25;;;;;;;;;;5072478;28;20060;-77
2022/12/18 04:31:15;;;;;;;29.63;10.90;;;;;;;;;;5092634;28;20048;-76
2022/12/18 04:33:42;;;;;;;29.60;10.05;;;;;;;;;;5092754;28;20101;-76
2022/12/18 04:36:09;;;;;;;32.15;9.63;;;;;;;;;;5090975;28;20075;-76
2022/12/18 04:38:35;;;;;;;26.20;9.75;;;;;;;;;;5091963;28;20048;-76
2022/12/18 04:41:01;;;;;;;29.50;10.10;;;;;;;;;;5090348;28;20050;-77
2022/12/18 04:43:28;;;;;;;26.45;9.35;;;;;;;;;;5091123;28;20052;-76
2022/12/18 04:46:01;;;;;;;25.88;8.65;;;;;;;;;;5090670;28;20052;-76
2022/12/18 04:48:27;;;;;;;27.38;9.05;;;;;;;;;;5092530;28;20121;-77
2022/12/18 04:50:53;;;;;;;24.25;9.27;;;;;;;;;;5090041;28;20245;-77
2022/12/18 04:53:20;;;;;;;26.92;8.57;;;;;;;;;;5089339;28;20504;-77
2022/12/18 04:55:46;;;;;;;28.50;10.00;;;;;;;;;;5091037;28;20052;-76
2022/12/18 04:58:12;;;;;;;31.60;9.48;;;;;;;;;;5095252;28;20059;-77
2022/12/18 05:00:39;;;;;;;27.58;9.13;;;;;;;;;;5072246;28;20076;-76
2022/12/18 05:03:05;;;;;;;29.63;9.48;;;;;;;;;;5089484;28;20497;-77
2022/12/18 05:05:34;;;;;;;24.02;7.93;;;;;;;;;;5089911;28;20050;-77
2022/12/18 05:08:00;;;;;;;24.25;8.77;;;;;;;;;;5081609;28;20072;-77
2022/12/18 05:10:27;;;;;;;23.33;8.40;;;;;;;;;;5062975;28;20045;-77
2022/12/18 05:13:01;;;;;;;24.13;8.18;;;;;;;;;;5069703;28;20104;-75
2022/12/18 05:15:31;;;;;;;24.73;7.57;;;;;;;;;;5065360;28;20048;-75
2022/12/18 05:17:58;;;;;;;22.50;8.13;;;;;;;;;;5069774;28;20310;-76
2022/12/18 05:20:25;;;;;;;22.88;8.10;;;;;;;;;;5069165;28;20151;-76
2022/12/18 05:22:53;;;;;;;21.52;7.43;;;;;;;;;;5067995;28;20559;-76
2022/12/18 05:25:19;;;;;;;23.90;8.88;;;;;;;;;;5068874;28;20274;-76
2022/12/18 05:27:46;;;;;;;20.15;7.40;;;;;;;;;;5069060;28;20044;-76
2022/12/18 05:30:13;;;;;;;23.02;7.82;;;;;;;;;;5067991;28;20053;-76
2022/12/18 05:32:40;;;;;;;21.77;8.25;;;;;;;;;;5068417;28;20055;-76
2022/12/18 05:35:07;;;;;;;22.17;8.13;;;;;;;;;;5068255;28;20444;-76
2022/12/18 05:37:33;;;;;;;24.77;8.40;;;;;;;;;;5068086;28;20306;-76
2022/12/18 05:40:06;;;;;;;23.13;8.05;;;;;;;;;;5068819;28;20585;-76
2022/12/18 05:42:33;;;;;;;20.35;7.35;;;;;;;;;;5067613;28;20398;-76
2022/12/18 05:44:59;;;;;;;21.75;7.65;;;;;;;;;;5067796;28;20068;-76
2022/12/18 05:47:26;;;;;;;15.55;6.07;;;;;;;;;;5069693;28;20052;-76
2022/12/18 05:49:53;;;;;;;16.27;6.25;;;;;;;;;;5068589;28;20424;-76
2022/12/18 05:52:19;;;;;;;14.48;5.95;;;;;;;;;;5067316;28;20052;-76
2022/12/18 05:54:45;;;;;;;18.92;6.53;;;;;;;;;;5068459;28;20057;-76
2022/12/18 05:57:12;;;;;;;16.67;7.05;;;;;;;;;;5067986;28;20339;-76
2022/12/18 05:59:38;;;;;;;21.73;7.32;;;;;;;;;;5068061;28;20044;-74
2022/12/18 06:02:05;;;;;;;18.55;7.28;;;;;;;;;;5065918;28;20058;-76
2022/12/18 06:04:31;;;;;;;19.85;7.95;;;;;;;;;;5068139;28;20135;-76
2022/12/18 06:06:58;;;;;;;22.33;6.78;;;;;;;;;;5067382;28;20051;-76
2022/12/18 06:09:24;;;;;;;21.95;6.95;;;;;;;;;;5054315;28;20045;-77
2022/12/18 06:11:51;;;;;;;20.85;7.20;;;;;;;;;;5065364;28;20044;-77
2022/12/18 06:14:18;;;;;;;16.30;6.43;;;;;;;;;;5067866;28;20048;-76
2022/12/18 06:16:44;;;;;;;21.90;6.00;;;;;;;;;;5084374;28;20397;-76
2022/12/18 06:19:14;;;;;;;18.77;6.55;;;;;;;;;;5089137;28;20062;-76
2022/12/18 06:21:41;;;;;;;20.83;6.57;;;;;;;;;;5087484;28;20052;-75
2022/12/18 06:24:08;;;;;;;18.58;6.28;;;;;;;;;;5088275;28;20048;-76
2022/12/18 06:26:36;;;;;;;15.90;6.18;;;;;;;;;;5069102;28;20527;-76
2022/12/18 06:29:02;;;;;;;15.43;5.43;;;;;;;;;;5087930;28;20637;-76
2022/12/18 06:31:29;;;;;;;17.70;5.28;;;;;;;;;;5088024;28;20048;-76
2022/12/18 06:33:56;;;;;;;17.13;5.15;;;;;;;;;;5087895;28;20090;-76
2022/12/18 06:36:22;;;;;;;12.52;4.88;;;;;;;;;;5087429;28;20527;-76
2022/12/18 06:38:49;;;;;;;15.23;5.65;;;;;;;;;;5070327;28;20059;-77
2022/12/18 06:41:16;;;;;;;12.70;5.25;;;;;;;;;;5087243;28;20052;-75
2022/12/18 06:43:43;;;;;;;13.10;5.50;;;;;;;;;;5087235;28;20261;-76
2022/12/18 06:46:10;;;;;;;21.98;5.68;;;;;;;;;;5087359;28;20076;-76
2022/12/18 06:48:37;;;;;;;15.95;5.10;;;;;;;;;;5088849;28;20052;-76
2022/12/18 06:51:03;;;;;;;14.20;5.13;;;;;;;;;;5086900;28;20113;-76
2022/12/18 06:53:30;;;;;;;19.63;5.75;;;;;;;;;;5087043;28;20562;-77
2022/12/18 06:56:04;;;;;;;15.25;5.75;;;;;;;;;;5087448;28;20059;-76
2022/12/18 06:58:36;;;;;;;18.70;5.88;;;;;;;;;;5088433;28;20052;-76
2022/12/18 07:01:03;;;;;;;20.55;6.70;;;;;;;;;;5088456;28;20059;-76
2022/12/18 07:03:30;;;;;;;20.90;6.38;;;;;;;;;;5088330;28;20048;-77
2022/12/18 07:05:56;;;;;;;18.08;5.25;;;;;;;;;;5088207;28;20055;-76
2022/12/18 07:08:23;;;;;;;17.75;5.63;;;;;;;;;;5065470;28;20044;-76
2022/12/18 07:10:49;;;;;;;17.30;5.80;;;;;;;;;;5064584;28;20394;-77
2022/12/18 07:13:21;;;;;;;13.90;5.25;;;;;;;;;;5066074;28;20036;-77
2022/12/18 07:15:48;;;;;;;19.25;5.03;;;;;;;;;;5065313;28;20760;-77
2022/12/18 07:18:14;;;;;;;15.30;5.30;;;;;;;;;;5065964;28;20064;-76
2022/12/18 07:20:41;;;;;;;13.25;4.85;;;;;;;;;;5065241;28;20056;-77
2022/12/18 07:23:07;;;;;;;17.55;5.05;;;;;;;;;;5066221;28;20294;-76
2022/12/18 07:25:34;;;;;;;13.13;5.30;;;;;;;;;;5066027;28;20075;-76
2022/12/18 07:28:01;;;;;;;15.02;4.95;;;;;;;;;;5068349;28;20044;-76
2022/12/18 07:30:27;;;;;;;16.80;5.22;;;;;;;;;;5064872;28;20051;-75
2022/12/18 07:32:53;;;;;;;16.13;4.70;;;;;;;;;;5064993;28;20045;-76
2022/12/18 07:35:20;;;;;;;13.75;4.82;;;;;;;;;;5049330;28;20051;-76
2022/12/18 07:37:50;;;;;;;14.23;5.18;;;;;;;;;;5067367;28;20053;-75
2022/12/18 07:40:16;;;;;;;12.02;4.95;;;;;;;;;;5067541;28;20533;-75
2022/12/18 07:42:43;;;;;;;15.05;5.03;;;;;;;;;;5066386;28;20508;-76
2022/12/18 07:45:09;;;;;;;15.48;5.30;;;;;;;;;;5066268;28;20635;-76
2022/12/18 07:47:36;;;;;;;17.17;5.53;;;;;;;;;;5067453;28;20049;-77
2022/12/18 07:50:03;;;;;;;13.82;5.50;;;;;;;;;;5063862;28;20511;-76
2022/12/18 07:52:29;;;;;;;15.43;5.45;;;;;;;;;;5047347;28;20041;-77
2022/12/18 07:54:56;;;;;;;16.17;5.50;;;;;;;;;;5059107;28;20048;-74
2022/12/18 07:57:22;;;;;;;15.70;5.07;;;;;;;;;;5062347;28;20148;-77
2022/12/18 08:00:09;;;;;;;13.55;5.68;;;;;;;;;;5057651;28;20533;-76
2022/12/18 08:02:35;;;;;;;18.70;6.60;;;;;;;;;;5065974;28;20056;-76
2022/12/18 08:05:02;;;;;;;15.95;6.07;;;;;;;;;;5070203;28;20424;-77
2022/12/18 08:07:32;;;;;;;19.83;6.53;;;;;;;;;;5044300;28;20136;-76
2022/12/18 08:09:58;;;;;;;17.45;6.32;;;;;;;;;;5039256;28;20045;-77
2022/12/18 08:12:25;;;;;;;22.23;6.78;;;;;;;;;;5069967;28;20051;-76
2022/12/18 08:14:51;;;;;;;17.10;6.25;;;;;;;;;;5059985;28;20059;-75
2022/12/18 08:17:18;;;;;;;19.60;6.63;;;;;;;;;;5042201;28;20539;-73
2022/12/18 08:19:45;;;;;;;17.13;6.65;;;;;;;;;;5043631;28;20543;-75
2022/12/18 08:22:11;;;;;;;18.35;6.07;;;;;;;;;;5063855;28;20168;-76
2022/12/18 08:24:38;;;;;;;17.52;7.05;;;;;;;;;;5062928;28;20412;-75
2022/12/18 08:27:04;;;;;;;14.30;5.97;;;;;;;;;;5063889;28;20306;-76
2022/12/18 08:29:50;;;;;;;17.40;6.78;;;;;;;;;;5062277;28;20056;-74
2022/12/18 08:32:17;;;;;;;16.08;6.40;;;;;;;;;;5062059;28;20107;-76
2022/12/18 08:34:43;;;;;;;12.82;5.00;;;;;;;;;;5064798;28;20105;-76
2022/12/18 08:37:10;;;;;;;14.60;5.28;;;;;;;;;;5049192;28;20131;-76
2022/12/18 08:39:36;;;;;;;13.48;5.55;;;;;;;;;;5064595;28;20052;-76
2022/12/18 08:44:48;;;;;;;;;;;;;;;;;;5062295;28;20045;-73
2022/12/18 08:47:17;;;;;;;13.73;5.00;;;;;;;;;;5064467;28;19936;-75
2022/12/18 08:49:43;;;;;;;16.23;4.90;;;;;;;;;;5053916;28;20048;-73
2022/12/18 08:52:09;;;;;;;16.98;5.95;;;;;;;;;;5045444;28;20508;-73
2022/12/18 08:54:36;;;;;;;17.98;6.18;;;;;;;;;;5061534;28;20044;-76
2022/12/18 08:57:02;;;;;;;13.93;5.47;;;;;;;;;;5063290;28;20083;-76
2022/12/18 08:59:29;;;;;;;13.15;5.60;;;;;;;;;;5063143;28;20059;-76
2022/12/18 09:01:55;;;;;;;17.60;5.80;;;;;;;;;;5062119;28;20052;-74
2022/12/18 09:04:22;;;;;;;17.45;5.68;;;;;;;;;;5045133;28;20067;-76
2022/12/18 09:06:48;;;;;;;11.20;4.82;;;;;;;;;;5062002;28;20041;-73
2022/12/18 09:09:15;;;;;;;11.60;4.63;;;;;;;;;;5063207;28;20048;-76
2022/12/18 09:11:41;;;;;;;13.52;5.47;;;;;;;;;;5062840;28;20492;-75
2022/12/18 09:14:09;;;;;;;12.63;5.15;;;;;;;;;;5059819;28;20052;-74
2022/12/18 09:16:35;;;;;;;13.13;4.88;;;;;;;;;;5062603;28;20055;-74
2022/12/18 09:19:03;;;;;;;10.10;4.75;;;;;;;;;;5062381;28;20137;-76
2022/12/18 09:21:31;;;;;;;11.73;4.82;;;;;;;;;;5076201;28;20405;-72
2022/12/18 09:24:02;;;;;;;8.82;4.78;;;;;;;;;;5083632;28;20154;-76
2022/12/18 09:26:30;;;;;;;12.00;4.45;;;;;;;;;;5061543;28;20053;-78
2022/12/18 09:28:56;;;;;;;11.25;5.00;;;;;;;;;;5062962;28;20564;-77
2022/12/18 09:31:24;;;;;;;11.82;4.95;;;;;;;;;;5058856;28;20040;-77
2022/12/18 09:33:51;;;;;;;9.43;4.50;;;;;;;;;;5062794;28;20088;-77
2022/12/18 09:36:18;;;;;;;12.82;5.00;;;;;;;;;;5052678;28;20056;-77
2022/12/18 09:38:44;;;;;;;10.80;4.85;;;;;;;;;;5063381;28;20052;-76
2022/12/18 09:41:29;;;;;;;10.15;4.90;;;;;;;;;;5061176;28;20531;-76
2022/12/18 09:44:11;;;;;;;11.37;5.00;;;;;;;;;;5043579;28;20059;-76
2022/12/18 09:46:40;;;;;;;10.38;5.30;;;;;;;;;;5063025;28;20153;-74
2022/12/18 09:49:10;;;;;;;10.38;4.97;;;;;;;;;;5062027;28;20567;-73
2022/12/18 09:51:39;;;;;;;11.32;6.10;;;;;;;;;;5062069;28;20505;-74
2022/12/18 09:54:10;;;;;;;13.73;6.18;;;;;;;;;;5042080;28;20044;-75
2022/12/18 09:56:38;;;;;;;11.20;5.68;;;;;;;;;;5062522;28;20052;-75
2022/12/18 09:59:05;;;;;;;14.23;6.53;;;;;;;;;;5062412;28;20059;-76
2022/12/18 10:01:32;;;;;;;14.70;6.53;;;;;;;;;;5057448;28;20068;-76
2022/12/18 10:04:08;;;;;;;13.35;6.85;;;;;;;;;;5061346;28;20115;-76
2022/12/18 10:06:38;;;;;;;11.65;6.30;;;;;;;;;;5062265;28;20536;-75
2022/12/18 10:09:05;;;;;;;16.05;6.90;;;;;;;;;;5040596;28;20049;-76
2022/12/18 10:11:40;;;;;;;13.80;6.63;;;;;;;;;;5059453;28;20052;-76
2022/12/18 10:14:13;;;;;;;14.60;6.88;;;;;;;;;;5059371;28;20402;-76
2022/12/18 10:16:49;;;;;;;16.85;7.63;;;;;;;;;;5060241;28;20048;-75
2022/12/18 10:19:20;;;;;;;19.33;7.32;;;;;;;;;;5059453;28;20575;-76
2022/12/18 10:22:05;;;;;;;17.75;6.90;;;;;;;;;;5060162;28;20679;-74
2022/12/18 10:24:54;;;;;;;18.20;6.43;;;;;;;;;;5061282;28;20047;-77
2022/12/18 10:27:25;;;;;;;17.63;6.50;;;;;;;;;;5033945;28;20048;-74
2022/12/18 10:29:52;;;;;;;18.80;6.70;;;;;;;;;;5059488;28;20120;-76
2022/12/18 10:32:20;;;;;;;13.10;5.80;;;;;;;;;;5059811;28;20059;-75
2022/12/18 10:34:50;;;;;;;16.90;6.03;;;;;;;;;;5055782;28;20072;-77
2022/12/18 10:37:26;;;;;;;17.23;6.32;;;;;;;;;;5061795;28;20048;-76
2022/12/18 10:40:14;;;;;;;14.30;6.88;;;;;;;;;;5060519;28;20063;-76
2022/12/18 10:43:02;;;;;;;16.75;6.53;;;;;;;;;;5058626;28;20082;-76
2022/12/18 10:45:29;;;;;;;17.27;6.60;;;;;;;;;;5054072;28;20052;-75
2022/12/18 10:47:55;;;;;;;18.83;7.20;;;;;;;;;;5059046;28;20063;-76
2022/12/18 10:50:24;;;;;;;17.90;7.25;;;;;;;;;;5063262;28;20060;-77
2022/12/18 10:52:58;;;;;;;17.50;6.78;;;;;;;;;;5062013;28;20052;-77
2022/12/18 10:55:36;;;;;;;17.15;6.53;;;;;;;;;;5063633;28;20040;-76
2022/12/18 10:58:22;;;;;;;15.85;6.75;;;;;;;;;;5062049;28;20418;-76
2022/12/18 11:01:10;;;;;;;20.05;7.07;;;;;;;;;;5059127;28;20056;-78
2022/12/18 11:03:37;;;;;;;16.50;6.65;;;;;;;;;;5061939;28;20053;-76
2022/12/18 11:06:05;;;;;;;24.23;7.13;;;;;;;;;;5063499;28;20067;-76
2022/12/18 11:08:31;;;;;;;24.33;8.45;;;;;;;;;;5063444;28;20052;-76
2022/12/18 11:10:58;;;;;;;21.38;8.57;;;;;;;;;;5059492;28;20048;-76
2022/12/18 11:13:26;;;;;;;19.15;7.85;;;;;;;;;;5063774;28;20795;-76
2022/12/18 11:15:52;;;;;;;19.95;7.63;;;;;;;;;;5060979;28;20052;-76
2022/12/18 11:18:20;;;;;;;17.08;7.70;;;;;;;;;;5065077;28;20053;-77
2022/12/18 11:20:54;;;;;;;23.88;8.30;;;;;;;;;;5064643;28;20489;-76
2022/12/18 11:23:24;;;;;;;22.73;8.93;;;;;;;;;;5054189;28;20432;-76
2022/12/18 11:25:51;;;;;;;22.42;8.20;;;;;;;;;;5063817;28;20492;-76
2022/12/18 11:28:36;;;;;;;20.67;7.93;;;;;;;;;;5066131;28;20052;-76
2022/12/18 11:31:09;;;;;;;15.65;7.10;;;;;;;;;;5064078;28;20057;-76
2022/12/18 11:33:37;;;;;;;25.40;8.55;;;;;;;;;;5030784;28;20138;-76
2022/12/18 11:36:05;;;;;;;20.73;7.80;;;;;;;;;;5065090;28;20062;-77
2022/12/18 11:38:36;;;;;;;23.08;7.25;;;;;;;;;;5072379;28;20444;-77
2022/12/18 11:41:05;;;;;;;16.25;6.60;;;;;;;;;;5071441;28;20059;-77
2022/12/18 11:43:45;;;;;;;17.73;6.30;;;;;;;;;;5073512;28;20052;-77
2022/12/18 11:46:14;;;;;;;14.43;5.75;;;;;;;;;;5070688;28;20048;-77
2022/12/18 11:48:58;;;;;;;10.40;5.32;;;;;;;;;;5070257;28;20052;-77
2022/12/18 11:51:48;;;;;;;12.80;5.55;;;;;;;;;;5069472;28;20048;-77
2022/12/18 11:54:15;;;;;;;13.55;5.85;;;;;;;;;;5070067;28;20125;-74
2022/12/18 11:56:50;;;;;;;12.90;5.78;;;;;;;;;;5077564;28;20041;-78
2022/12/18 11:59:18;;;;;;;13.95;6.25;;;;;;;;;;5067948;28;20044;-78
2022/12/18 12:01:48;;;;;;;12.57;5.65;;;;;;;;;;5068131;28;20055;-78
2022/12/18 12:04:20;;;;;;;13.98;5.63;;;;;;;;;;5064226;28;20052;-77
2022/12/18 12:06:58;;;;;;;12.88;5.57;;;;;;;;;;5071542;28;20400;-78
2022/12/18 12:09:43;;;;;;;9.63;5.20;;;;;;;;;;5067780;28;20104;-77
2022/12/18 12:12:21;;;;;;;11.80;5.55;;;;;;;;;;5049206;28;20044;-75
2022/12/18 12:15:01;;;;;;;13.02;5.65;;;;;;;;;;5071645;28;20076;-75
2022/12/18 12:17:31;;;;;;;16.00;5.35;;;;;;;;;;5037612;28;20056;-76
2022/12/18 12:20:10;;;;;;;11.93;5.38;;;;;;;;;;5070116;28;20044;-74
2022/12/18 12:22:37;;;;;;;11.18;4.80;;;;;;;;;;5055210;28;20052;-77
2022/12/18 12:25:09;;;;;;;9.27;4.72;;;;;;;;;;5054971;28;20053;-77
2022/12/18 12:27:45;;;;;;;12.05;4.88;;;;;;;;;;5048076;28;20045;-76
2022/12/18 12:30:21;;;;;;;12.93;4.88;;;;;;;;;;5048032;28;20549;-76
2022/12/18 12:33:02;;;;;;;12.27;4.97;;;;;;;;;;5067052;28;20047;-79
2022/12/18 12:35:40;;;;;;;12.55;4.95;;;;;;;;;;5067809;28;20047;-77
2022/12/18 12:38:12;;;;;;;13.02;5.30;;;;;;;;;;5067457;28;20052;-78
2022/12/18 12:40:42;;;;;;;11.60;5.10;;;;;;;;;;5069976;28;20481;-77
2022/12/18 12:43:32;;;;;;;12.40;5.28;;;;;;;;;;5067720;28;20155;-78
2022/12/18 12:46:00;;;;;;;11.98;4.82;;;;;;;;;;5049168;28;20134;-76
2022/12/18 12:48:38;;;;;;;14.55;5.20;;;;;;;;;;5066774;28;20132;-78
2022/12/18 12:51:16;;;;;;;11.35;4.60;;;;;;;;;;5066196;28;20475;-78
2022/12/18 12:53:42;;;;;;;12.60;4.85;;;;;;;;;;5049722;28;20056;-76
2022/12/18 12:56:11;;;;;;;12.75;4.95;;;;;;;;;;5069024;28;20140;-76
2022/12/18 12:58:43;;;;;;;11.82;4.57;;;;;;;;;;5070718;28;20045;-76
2022/12/18 13:01:32;;;;;;;14.05;4.72;;;;;;;;;;5065773;28;20124;-74
2022/12/18 13:04:18;;;;;;;17.27;4.78;;;;;;;;;;5065015;28;20044;-76
2022/12/18 13:06:44;;;;;;;;;;;;;;;;;;5066456;28;20056;-76
2022/12/18 13:09:31;;;;;;;11.82;4.72;;;;;;;;;;5042712;28;19924;-73
2022/12/18 13:15:19;;;;;;;14.35;5.55;;;;;;;;;;5064813;28;20055;-76
2022/12/18 13:17:45;;;;;;;;;;;;;;;;;;5066543;28;20663;-76
2022/12/18 13:20:15;;;;;;;14.30;4.80;;;;;;;;;;5066396;28;19928;-74
2022/12/18 13:22:46;;;;;;;14.65;5.00;;;;;;;;;;5062358;28;20053;-75
2022/12/18 13:25:35;;;;;;;14.75;5.35;;;;;;;;;;5067081;28;20052;-76
2022/12/18 13:28:04;;;;;;;12.27;5.00;;;;;;;;;;5046080;28;20041;-76
2022/12/18 13:30:31;;;;;;;10.18;4.22;;;;;;;;;;5064941;28;20048;-76
2022/12/18 13:33:24;;;;;;;15.02;5.05;;;;;;;;;;5066485;28;20056;-76
2022/12/18 13:35:50;;;;;;;13.95;5.07;;;;;;;;;;5026221;28;20731;-75
2022/12/18 13:38:20;;;;;;;13.82;4.78;;;;;;;;;;5065448;28;20060;-76
2022/12/18 13:40:46;;;;;;;13.35;5.60;;;;;;;;;;5069333;28;20044;-75
2022/12/18 13:43:19;;;;;;;17.00;5.72;;;;;;;;;;5085113;28;20411;-77
2022/12/18 13:45:58;;;;;;;13.73;4.93;;;;;;;;;;5082063;28;20049;-76
2022/12/18 13:48:25;;;;;;;13.40;5.03;;;;;;;;;;5057462;28;20080;-76
2022/12/18 13:50:54;;;;;;;15.18;5.13;;;;;;;;;;5064532;28;20036;-76
2022/12/18 13:53:23;;;;;;;12.15;4.68;;;;;;;;;;5063930;28;20481;-76
2022/12/18 13:55:51;;;;;;;17.48;4.75;;;;;;;;;;5064639;28;20060;-76
2022/12/18 13:58:17;;;;;;;14.50;5.28;;;;;;;;;;5063858;28;20052;-77
2022/12/18 14:00:44;;;;;;;12.85;4.85;;;;;;;;;;5063422;28;20420;-77
2022/12/18 14:03:17;;;;;;;12.27;4.78;;;;;;;;;;5064177;28;20131;-77
2022/12/18 14:05:52;;;;;;;12.25;4.65;;;;;;;;;;5063796;28;20068;-77
2022/12/18 14:08:20;;;;;;;13.05;4.68;;;;;;;;;;5064758;28;20048;-77
2022/12/18 14:10:48;;;;;;;12.43;4.70;;;;;;;;;;5063958;28;20041;-77
2022/12/18 14:13:19;;;;;;;15.98;4.97;;;;;;;;;;5063627;28;20052;-77
2022/12/18 14:15:47;;;;;;;13.23;5.28;;;;;;;;;;5072912;28;20051;-76
2022/12/18 14:18:22;;;;;;;13.38;4.63;;;;;;;;;;5049776;28;20072;-77
2022/12/18 14:20:50;;;;;;;15.73;4.88;;;;;;;;;;5046341;28;20044;-76
2022/12/18 14:23:25;;;;;;;12.00;4.82;;;;;;;;;;5062942;28;20050;-76
2022/12/18 14:25:52;;;;;;;13.57;4.97;;;;;;;;;;5063320;28;20048;-75
2022/12/18 14:28:18;;;;;;;15.93;5.38;;;;;;;;;;5064890;28;20044;-78
2022/12/18 14:30:45;;;;;;;13.27;5.38;;;;;;;;;;5048639;28;20048;-78
2022/12/18 14:33:18;;;;;;;15.98;5.90;;;;;;;;;;5063963;28;20540;-77
2022/12/18 14:36:02;;;;;;;13.98;5.85;;;;;;;;;;5064428;28;20048;-77
2022/12/18 14:38:28;;;;;;;12.93;4.95;;;;;;;;;;5067088;28;20044;-80
2022/12/18 14:40:56;;;;;;;12.77;4.80;;;;;;;;;;5068650;28;20071;-77
2022/12/18 14:43:23;;;;;;;17.27;5.00;;;;;;;;;;5068242;28;20044;-77
2022/12/18 14:45:51;;;;;;;13.18;4.97;;;;;;;;;;5067920;28;20090;-78
2022/12/18 14:48:17;;;;;;;15.38;4.85;;;;;;;;;;5053604;28;20488;-78
2022/12/18 14:50:59;;;;;;;12.75;4.55;;;;;;;;;;5069445;28;20049;-78